createdAt,value
2023-05-21T00:02:18.764Z,15.46
2023-05-21T00:04:45.377Z,15.49
2023-05-21T00:07:12.645Z,15.48
2023-05-21T00:09:39.544Z,15.39
2023-05-21T00:12:07.177Z,15.36
2023-05-21T00:14:34.253Z,15.46
2023-05-21T00:17:00.726Z,15.52
2023-05-21T00:19:27.342Z,15.56
2023-05-21T00:21:54.722Z,15.60
2023-05-21T00:24:21.231Z,15.53
2023-05-21T00:26:47.665Z,15.43
2023-05-21T00:29:14.097Z,15.44
2023-05-21T00:31:40.573Z,15.43
2023-05-21T00:34:06.956Z,15.36
2023-05-21T00:36:34.644Z,15.36
2023-05-21T00:39:02.312Z,15.31
2023-05-21T00:41:30.134Z,15.33
2023-05-21T00:43:57.116Z,15.28
2023-05-21T00:46:23.965Z,15.23
2023-05-21T00:48:51.025Z,15.23
2023-05-21T00:51:18.467Z,15.26
2023-05-21T00:53:45.898Z,15.23
2023-05-21T00:56:12.457Z,15.23
2023-05-21T00:58:39.732Z,15.24
2023-05-21T01:01:06.728Z,15.21
2023-05-21T01:03:38.574Z,15.16
2023-05-21T01:06:06.800Z,15.16
2023-05-21T01:08:35.050Z,15.13
2023-05-21T01:11:03.112Z,15.08
2023-05-21T01:13:31.387Z,15.10
2023-05-21T01:15:59.158Z,15.05
2023-05-21T01:18:26.767Z,15.06
2023-05-21T01:20:53.580Z,15.05
2023-05-21T01:23:20.576Z,15.06
2023-05-21T01:25:47.271Z,15.00
2023-05-21T01:28:14.050Z,15.01
2023-05-21T01:30:42.780Z,14.96
2023-05-21T01:33:17.412Z,14.93
2023-05-21T01:35:46.811Z,14.94
2023-05-21T01:38:29.283Z,14.91
2023-05-21T01:41:03.506Z,14.85
2023-05-21T01:43:33.897Z,14.76
2023-05-21T01:46:01.756Z,14.71
2023-05-21T01:48:29.523Z,14.67
2023-05-21T01:51:00.066Z,14.66
2023-05-21T01:53:26.516Z,14.63
2023-05-21T01:55:54.519Z,14.64
2023-05-21T01:58:21.519Z,14.61
2023-05-21T02:00:47.998Z,14.59
2023-05-21T02:03:17.106Z,14.57
2023-05-21T02:05:43.663Z,14.51
2023-05-21T02:08:10.128Z,14.48
2023-05-21T02:10:36.837Z,14.50
2023-05-21T02:13:03.496Z,14.52
2023-05-21T02:15:30.321Z,14.49
2023-05-21T02:17:58.405Z,14.48
2023-05-21T02:20:25.064Z,14.45
2023-05-21T02:22:51.555Z,14.45
2023-05-21T02:25:19.753Z,14.44
2023-05-21T02:27:46.954Z,14.45
2023-05-21T02:30:16.228Z,14.43
2023-05-21T02:32:43.302Z,14.38
2023-05-21T02:35:11.533Z,14.33
2023-05-21T02:37:40.269Z,14.30
2023-05-21T02:40:08.141Z,14.29
2023-05-21T02:42:34.541Z,14.29
2023-05-21T02:45:00.986Z,14.26
2023-05-21T02:47:27.484Z,14.28
2023-05-21T02:49:54.103Z,14.24
2023-05-21T02:52:23.916Z,14.24
2023-05-21T02:54:50.508Z,14.21
2023-05-21T02:57:18.252Z,14.22
2023-05-21T02:59:45.833Z,14.20
2023-05-21T03:02:12.409Z,14.16
2023-05-21T03:04:39.212Z,14.11
2023-05-21T03:07:06.045Z,14.12
2023-05-21T03:09:32.484Z,14.12
2023-05-21T03:11:58.903Z,14.11
2023-05-21T03:14:25.298Z,14.12
2023-05-21T03:16:51.740Z,14.13
2023-05-21T03:19:18.237Z,14.15
2023-05-21T03:21:44.714Z,14.14
2023-05-21T03:24:13.582Z,14.13
2023-05-21T03:26:40.016Z,14.11
2023-05-21T03:29:06.446Z,14.12
2023-05-21T03:31:32.902Z,14.11
2023-05-21T03:33:59.351Z,14.15
2023-05-21T03:36:25.831Z,14.16
2023-05-21T03:38:52.271Z,14.16
2023-05-21T03:41:18.682Z,14.15
2023-05-21T03:43:45.246Z,14.15
2023-05-21T03:46:11.654Z,14.15
2023-05-21T03:48:38.101Z,14.14
2023-05-21T03:51:04.517Z,14.17
2023-05-21T03:53:30.983Z,14.18
2023-05-21T03:55:57.349Z,14.19
2023-05-21T03:58:24.278Z,14.21
2023-05-21T04:00:51.003Z,14.25
2023-05-21T04:03:18.102Z,14.25
2023-05-21T04:05:44.841Z,14.27
2023-05-21T04:08:11.637Z,14.26
2023-05-21T04:10:38.016Z,14.23
2023-05-21T04:13:04.452Z,14.16
2023-05-21T04:15:31.094Z,14.08
2023-05-21T04:17:58.584Z,14.06
2023-05-21T04:20:25.018Z,14.08
2023-05-21T04:22:51.985Z,14.08
2023-05-21T04:25:20.336Z,14.04
2023-05-21T04:27:47.733Z,14.06
2023-05-21T04:30:14.154Z,14.10
2023-05-21T04:32:40.625Z,14.07
2023-05-21T04:35:09.998Z,14.12
2023-05-21T04:37:36.394Z,14.12
2023-05-21T04:40:03.149Z,14.11
2023-05-21T04:42:30.347Z,14.11
2023-05-21T04:44:59.286Z,14.09
2023-05-21T04:47:25.765Z,14.07
2023-05-21T04:49:53.342Z,14.06
2023-05-21T04:52:19.861Z,14.06
2023-05-21T04:54:47.821Z,14.09
2023-05-21T04:57:14.288Z,14.12
2023-05-21T04:59:41.369Z,14.16
2023-05-21T05:02:07.759Z,14.22
2023-05-21T05:04:34.195Z,14.25
2023-05-21T05:07:00.640Z,14.29
2023-05-21T05:09:27.112Z,14.30
2023-05-21T05:11:53.558Z,14.32
2023-05-21T05:14:19.915Z,14.35
2023-05-21T05:16:48.289Z,14.41
2023-05-21T05:19:14.943Z,14.41
2023-05-21T05:21:41.634Z,14.45
2023-05-21T05:24:08.025Z,14.49
2023-05-21T05:26:34.486Z,14.50
2023-05-21T05:29:01.006Z,14.54
2023-05-21T05:31:27.498Z,14.57
2023-05-21T05:33:53.994Z,14.58
2023-05-21T05:36:21.085Z,14.61
2023-05-21T05:38:47.476Z,14.68
2023-05-21T05:41:13.827Z,14.73
2023-05-21T05:43:40.218Z,14.73
2023-05-21T05:46:06.697Z,14.75
2023-05-21T05:48:33.173Z,14.82
2023-05-21T05:50:59.863Z,14.77
2023-05-21T05:53:26.258Z,14.81
2023-05-21T05:55:52.788Z,14.86
2023-05-21T05:58:19.322Z,14.86
2023-05-21T06:00:46.016Z,14.89
2023-05-21T06:03:12.700Z,14.93
2023-05-21T06:05:39.441Z,15.01
2023-05-21T06:08:06.336Z,15.06
2023-05-21T06:10:32.727Z,15.25
2023-05-21T06:12:59.092Z,15.37
2023-05-21T06:15:25.458Z,15.48
2023-05-21T06:17:51.875Z,15.57
2023-05-21T06:20:18.311Z,15.76
2023-05-21T06:22:44.705Z,15.94
2023-05-21T06:25:11.169Z,16.23
2023-05-21T06:27:38.557Z,16.47
2023-05-21T06:30:05.884Z,16.45
2023-05-21T06:32:32.338Z,16.50
2023-05-21T06:34:58.832Z,16.46
2023-05-21T06:37:26.666Z,16.42
2023-05-21T06:39:53.186Z,16.49
2023-05-21T06:42:19.595Z,16.46
2023-05-21T06:44:46.030Z,16.35
2023-05-21T06:47:12.528Z,16.42
2023-05-21T06:49:39.018Z,16.51
2023-05-21T06:52:05.738Z,16.58
2023-05-21T06:54:32.171Z,16.56
2023-05-21T06:56:58.732Z,16.59
2023-05-21T06:59:25.108Z,16.64
2023-05-21T07:01:51.486Z,16.71
2023-05-21T07:04:17.900Z,16.87
2023-05-21T07:06:44.267Z,17.01
2023-05-21T07:09:10.733Z,17.09
2023-05-21T07:11:37.175Z,17.14
2023-05-21T07:14:03.981Z,17.11
2023-05-21T07:16:30.573Z,17.02
2023-05-21T07:18:57.077Z,17.16
2023-05-21T07:21:24.249Z,17.29
2023-05-21T07:23:50.696Z,17.44
2023-05-21T07:26:17.229Z,17.63
2023-05-21T07:28:43.744Z,17.68
2023-05-21T07:31:12.105Z,17.81
2023-05-21T07:33:38.634Z,17.89
2023-05-21T07:36:05.482Z,18.00
2023-05-21T07:38:32.394Z,18.22
2023-05-21T07:40:58.806Z,18.38
2023-05-21T07:43:25.242Z,18.46
2023-05-21T07:45:51.810Z,18.72
2023-05-21T07:48:18.818Z,18.73
2023-05-21T07:50:45.292Z,18.85
2023-05-21T07:53:11.771Z,18.90
2023-05-21T07:55:38.480Z,19.00
2023-05-21T07:58:05.091Z,19.08
2023-05-21T08:00:42.587Z,19.44
2023-05-21T08:03:09.010Z,19.64
2023-05-21T08:05:35.936Z,19.66
2023-05-21T08:08:02.438Z,19.68
2023-05-21T08:10:29.017Z,19.64
2023-05-21T08:12:55.426Z,19.66
2023-05-21T08:15:22.333Z,19.84
2023-05-21T08:17:48.824Z,19.96
2023-05-21T08:20:15.462Z,19.74
2023-05-21T08:22:43.272Z,19.68
2023-05-21T08:25:09.887Z,19.66
2023-05-21T08:27:36.473Z,19.80
2023-05-21T08:30:02.974Z,19.87
2023-05-21T08:32:29.464Z,19.82
2023-05-21T08:34:56.378Z,19.92
2023-05-21T08:37:22.786Z,20.09
2023-05-21T08:39:49.142Z,20.02
2023-05-21T08:42:39.109Z,19.90
2023-05-21T08:45:09.091Z,19.78
2023-05-21T08:47:36.925Z,20.11
2023-05-21T08:50:04.867Z,20.07
2023-05-21T08:52:32.292Z,20.09
2023-05-21T08:54:59.797Z,20.39
2023-05-21T08:57:27.248Z,20.40
2023-05-21T08:59:54.737Z,20.90
2023-05-21T09:02:21.333Z,21.40
2023-05-21T09:04:49.735Z,21.52
2023-05-21T09:07:16.980Z,21.66
2023-05-21T09:09:57.650Z,21.71
2023-05-21T09:12:25.406Z,21.85
2023-05-21T09:14:52.494Z,21.80
2023-05-21T09:17:20.405Z,22.09
2023-05-21T09:20:13.214Z,22.23
2023-05-21T09:22:44.440Z,22.18
2023-05-21T09:25:13.673Z,22.18
2023-05-21T09:27:40.176Z,22.15
2023-05-21T09:30:14.984Z,22.31
2023-05-21T09:32:43.651Z,22.46
2023-05-21T09:35:15.908Z,22.77
2023-05-21T09:37:43.969Z,23.04
2023-05-21T09:40:18.380Z,23.03
2023-05-21T09:42:55.140Z,23.08
2023-05-21T09:45:23.829Z,22.83
2023-05-21T09:47:52.238Z,22.72
2023-05-21T09:50:26.968Z,22.77
2023-05-21T09:52:55.349Z,23.33
2023-05-21T09:55:26.564Z,23.30
2023-05-21T09:57:53.338Z,23.34
2023-05-21T10:00:24.255Z,23.66
2023-05-21T10:02:55.187Z,23.90
2023-05-21T10:05:26.681Z,23.78
2023-05-21T10:07:56.749Z,23.71
2023-05-21T10:10:23.683Z,24.00
2023-05-21T10:12:58.335Z,24.11
2023-05-21T10:15:27.901Z,23.72
2023-05-21T10:17:55.881Z,23.67
2023-05-21T10:20:22.600Z,23.99
2023-05-21T10:22:50.549Z,24.03
2023-05-21T10:25:17.359Z,23.77
2023-05-21T10:27:44.887Z,23.78
2023-05-21T10:30:11.741Z,23.57
2023-05-21T10:32:40.493Z,23.85
2023-05-21T10:35:08.832Z,24.04
2023-05-21T10:37:35.606Z,24.33
2023-05-21T10:40:02.251Z,24.28
2023-05-21T10:42:31.935Z,24.31
2023-05-21T10:45:04.036Z,24.99
2023-05-21T10:47:54.385Z,25.27
2023-05-21T10:50:57.577Z,24.89
2023-05-21T10:53:23.963Z,24.56
2023-05-21T10:56:06.653Z,24.73
2023-05-21T10:59:00.841Z,24.85
2023-05-21T11:01:34.043Z,24.88
2023-05-21T11:04:00.847Z,24.76
2023-05-21T11:06:27.940Z,25.14
2023-05-21T11:08:55.530Z,24.95
2023-05-21T11:11:46.017Z,24.59
2023-05-21T11:14:36.696Z,24.52
2023-05-21T11:17:16.328Z,24.81
2023-05-21T11:19:47.005Z,25.41
2023-05-21T11:22:27.092Z,24.76
2023-05-21T11:24:55.479Z,24.83
2023-05-21T11:27:39.651Z,25.65
2023-05-21T11:30:10.452Z,26.13
2023-05-21T11:33:12.211Z,26.57
2023-05-21T11:35:44.951Z,26.23
2023-05-21T11:38:11.485Z,26.11
2023-05-21T11:40:38.375Z,26.22
2023-05-21T11:43:04.919Z,26.68
2023-05-21T11:45:32.859Z,26.60
2023-05-21T11:48:00.403Z,26.77
2023-05-21T11:50:28.317Z,26.90
2023-05-21T11:52:54.765Z,26.59
2023-05-21T11:55:22.806Z,26.75
2023-05-21T11:57:53.649Z,27.03
2023-05-21T12:00:20.136Z,26.89
2023-05-21T12:02:50.025Z,27.13
2023-05-21T12:05:16.968Z,27.03
2023-05-21T12:07:48.599Z,27.19
2023-05-21T12:10:15.078Z,27.12
2023-05-21T12:12:53.976Z,26.90
2023-05-21T12:15:22.719Z,27.03
2023-05-21T12:17:52.675Z,27.08
2023-05-21T12:20:19.971Z,27.06
2023-05-21T12:22:49.253Z,27.33
2023-05-21T12:25:19.826Z,27.44
2023-05-21T12:27:46.723Z,27.92
2023-05-21T12:30:13.624Z,27.92
2023-05-21T12:32:45.774Z,27.33
2023-05-21T12:35:23.485Z,27.22
2023-05-21T12:37:51.065Z,26.99
2023-05-21T12:40:18.109Z,27.14
2023-05-21T12:42:44.701Z,27.26
2023-05-21T12:45:11.555Z,27.20
2023-05-21T12:47:38.433Z,27.04
2023-05-21T12:50:08.505Z,27.05
2023-05-21T12:52:35.018Z,27.39
2023-05-21T12:55:01.468Z,27.80
2023-05-21T12:57:35.793Z,27.48
2023-05-21T13:00:04.349Z,26.79
2023-05-21T13:02:38.663Z,26.34
2023-05-21T13:05:26.381Z,26.22
2023-05-21T13:07:52.735Z,26.31
2023-05-21T13:10:19.223Z,26.49
2023-05-21T13:12:46.280Z,26.81
2023-05-21T13:15:12.950Z,27.34
2023-05-21T13:17:39.390Z,27.73
2023-05-21T13:20:13.143Z,27.63
2023-05-21T13:22:47.302Z,27.84
2023-05-21T13:25:16.394Z,28.00
2023-05-21T13:27:43.353Z,27.58
2023-05-21T13:30:11.732Z,27.31
2023-05-21T13:32:40.079Z,27.20
2023-05-21T13:35:07.160Z,27.46
2023-05-21T13:37:36.158Z,27.24
2023-05-21T13:40:10.338Z,27.33
2023-05-21T13:42:40.052Z,27.45
2023-05-21T13:45:08.928Z,27.30
2023-05-21T13:47:37.606Z,27.73
2023-05-21T13:50:07.149Z,27.62
2023-05-21T13:52:33.628Z,27.61
2023-05-21T13:55:00.186Z,27.86
2023-05-21T13:57:30.872Z,28.30
2023-05-21T13:59:58.247Z,28.32
2023-05-21T14:02:24.892Z,28.40
2023-05-21T14:04:51.590Z,28.28
2023-05-21T14:07:18.099Z,28.22
2023-05-21T14:09:44.437Z,28.23
2023-05-21T14:12:10.841Z,28.07
2023-05-21T14:14:37.816Z,28.28
2023-05-21T14:17:04.667Z,28.40
2023-05-21T14:19:31.691Z,28.49
2023-05-21T14:21:59.774Z,28.54
2023-05-21T14:24:26.207Z,28.46
2023-05-21T14:26:52.578Z,28.55
2023-05-21T14:29:18.960Z,28.32
2023-05-21T14:31:46.286Z,28.32
2023-05-21T14:34:12.741Z,28.46
2023-05-21T14:36:39.288Z,28.53
2023-05-21T14:39:05.774Z,28.81
2023-05-21T14:41:32.135Z,28.82
2023-05-21T14:43:58.563Z,28.43
2023-05-21T14:46:25.158Z,28.50
2023-05-21T14:48:51.756Z,28.71
2023-05-21T14:51:19.163Z,28.69
2023-05-21T14:53:45.566Z,28.34
2023-05-21T14:56:11.998Z,29.03
2023-05-21T14:58:38.415Z,29.42
2023-05-21T15:01:05.100Z,29.03
2023-05-21T15:03:31.664Z,28.56
2023-05-21T15:05:58.604Z,28.32
2023-05-21T15:08:25.428Z,28.52
2023-05-21T15:10:52.093Z,28.47
2023-05-21T15:13:18.834Z,28.13
2023-05-21T15:15:45.458Z,27.66
2023-05-21T15:18:11.951Z,27.20
2023-05-21T15:20:38.383Z,27.06
2023-05-21T15:23:16.011Z,26.82
2023-05-21T15:25:42.990Z,26.80
2023-05-21T15:28:09.357Z,26.49
2023-05-21T15:30:35.732Z,26.40
2023-05-21T15:33:02.095Z,26.28
2023-05-21T15:35:28.599Z,25.91
2023-05-21T15:37:55.099Z,25.72
2023-05-21T15:40:21.538Z,25.48
2023-05-21T15:42:47.975Z,25.20
2023-05-21T15:45:14.514Z,25.13
2023-05-21T15:47:42.689Z,25.25
2023-05-21T15:50:10.294Z,25.15
2023-05-21T15:52:37.060Z,24.94
2023-05-21T15:55:03.481Z,24.91
2023-05-21T15:57:30.143Z,24.61
2023-05-21T15:59:56.570Z,24.52
2023-05-21T16:02:23.043Z,24.54
2023-05-21T16:04:51.635Z,24.68
2023-05-21T16:07:18.706Z,24.50
2023-05-21T16:09:45.147Z,24.45
2023-05-21T16:12:11.604Z,24.33
2023-05-21T16:14:37.987Z,24.08
2023-05-21T16:17:04.760Z,24.06
2023-05-21T16:19:31.549Z,24.06
2023-05-21T16:21:58.045Z,24.03
2023-05-21T16:24:24.510Z,24.06
2023-05-21T16:26:50.913Z,23.95
2023-05-21T16:29:17.328Z,23.77
2023-05-21T16:31:43.868Z,23.77
2023-05-21T16:34:10.433Z,23.64
2023-05-21T16:36:38.218Z,23.65
2023-05-21T16:39:04.616Z,23.67
2023-05-21T16:41:31.137Z,23.44
2023-05-21T16:43:57.519Z,23.20
2023-05-21T16:46:24.005Z,23.07
2023-05-21T16:48:50.597Z,22.99
2023-05-21T16:51:17.009Z,22.84
2023-05-21T16:53:43.436Z,22.62
2023-05-21T16:56:09.871Z,22.50
2023-05-21T16:58:36.346Z,22.55
2023-05-21T17:01:03.602Z,22.44
2023-05-21T17:03:32.361Z,22.46
2023-05-21T17:05:59.039Z,22.37
2023-05-21T17:08:25.420Z,22.14
2023-05-21T17:10:51.904Z,21.94
2023-05-21T17:13:22.702Z,22.01
2023-05-21T17:15:53.110Z,22.16
2023-05-21T17:18:19.646Z,22.24
2023-05-21T17:20:46.119Z,22.16
2023-05-21T17:23:12.704Z,21.79
2023-05-21T17:25:39.893Z,21.73
2023-05-21T17:28:06.706Z,21.74
2023-05-21T17:30:33.439Z,21.56
2023-05-21T17:33:02.075Z,21.60
2023-05-21T17:35:28.573Z,21.59
2023-05-21T17:37:55.210Z,21.65
2023-05-21T17:40:24.208Z,21.61
2023-05-21T17:42:51.731Z,21.51
2023-05-21T17:45:18.502Z,21.41
2023-05-21T17:47:44.970Z,21.23
2023-05-21T17:50:11.546Z,21.08
2023-05-21T17:52:38.113Z,21.00
2023-05-21T17:55:05.134Z,20.91
2023-05-21T17:57:31.562Z,20.81
2023-05-21T17:59:58.065Z,20.66
2023-05-21T18:02:25.320Z,20.57
2023-05-21T18:04:51.693Z,20.50
2023-05-21T18:07:18.048Z,20.41
2023-05-21T18:09:44.463Z,20.43
2023-05-21T18:12:11.062Z,20.52
2023-05-21T18:14:37.501Z,20.54
2023-05-21T18:17:04.171Z,20.37
2023-05-21T18:19:33.679Z,20.33
2023-05-21T18:22:00.176Z,20.19
2023-05-21T18:24:26.609Z,20.07
2023-05-21T18:26:53.026Z,20.07
2023-05-21T18:29:19.466Z,20.07
2023-05-21T18:31:46.040Z,20.08
2023-05-21T18:34:12.666Z,20.04
2023-05-21T18:36:39.993Z,19.92
2023-05-21T18:39:09.764Z,19.97
2023-05-21T18:41:37.178Z,19.86
2023-05-21T18:44:04.038Z,19.84
2023-05-21T18:46:31.583Z,19.83
2023-05-21T18:49:00.060Z,19.66
2023-05-21T18:51:26.564Z,19.60
2023-05-21T18:53:53.195Z,19.39
2023-05-21T18:56:19.632Z,19.43
2023-05-21T18:58:46.246Z,19.41
2023-05-21T19:01:12.761Z,19.41
2023-05-21T19:03:39.357Z,19.29
2023-05-21T19:06:05.838Z,19.22
2023-05-21T19:08:32.242Z,19.13
2023-05-21T19:10:58.610Z,18.98
2023-05-21T19:13:26.209Z,18.84
2023-05-21T19:15:52.685Z,18.80
2023-05-21T19:18:19.169Z,18.74
2023-05-21T19:20:45.554Z,18.69
2023-05-21T19:23:12.084Z,18.62
2023-05-21T19:25:38.577Z,18.45
2023-05-21T19:28:05.362Z,18.33
2023-05-21T19:30:34.793Z,18.31
2023-05-21T19:33:01.609Z,18.36
2023-05-21T19:35:28.151Z,18.25
2023-05-21T19:37:58.625Z,18.22
2023-05-21T19:40:25.373Z,18.19
2023-05-21T19:42:51.745Z,18.15
2023-05-21T19:45:18.146Z,18.02
2023-05-21T19:47:44.604Z,17.99
2023-05-21T19:50:11.688Z,17.99
2023-05-21T19:52:39.083Z,17.94
2023-05-21T19:55:08.531Z,17.89
2023-05-21T19:57:34.886Z,17.88
2023-05-21T20:00:01.318Z,17.83
2023-05-21T20:02:30.568Z,17.70
2023-05-21T20:04:58.693Z,17.69
2023-05-21T20:07:25.122Z,17.71
2023-05-21T20:09:52.239Z,17.73
2023-05-21T20:12:18.770Z,17.70
2023-05-21T20:14:49.497Z,17.72
2023-05-21T20:17:18.758Z,17.83
2023-05-21T20:19:48.034Z,17.79
2023-05-21T20:22:17.764Z,17.72
2023-05-21T20:24:44.163Z,17.71
2023-05-21T20:27:10.525Z,17.69
2023-05-21T20:29:36.898Z,17.66
2023-05-21T20:32:03.406Z,17.63
2023-05-21T20:34:29.854Z,17.58
2023-05-21T20:36:58.174Z,17.52
2023-05-21T20:39:27.175Z,17.39
2023-05-21T20:41:54.915Z,17.39
2023-05-21T20:44:22.410Z,17.29
2023-05-21T20:46:49.082Z,17.29
2023-05-21T20:49:15.642Z,17.29
2023-05-21T20:51:42.355Z,17.26
2023-05-21T20:54:09.829Z,17.15
2023-05-21T20:56:42.118Z,17.09
2023-05-21T20:59:10.892Z,16.99
2023-05-21T21:01:38.087Z,16.92
2023-05-21T21:04:04.916Z,16.86
2023-05-21T21:06:31.793Z,16.81
2023-05-21T21:08:58.397Z,16.82
2023-05-21T21:11:24.941Z,16.73
2023-05-21T21:13:51.848Z,16.73
2023-05-21T21:16:18.472Z,16.68
2023-05-21T21:18:46.710Z,16.67
2023-05-21T21:21:13.172Z,16.73
2023-05-21T21:23:39.612Z,16.70
2023-05-21T21:26:06.123Z,16.65
2023-05-21T21:28:32.468Z,16.56
2023-05-21T21:30:58.877Z,16.57
2023-05-21T21:33:26.603Z,16.53
2023-05-21T21:35:53.193Z,16.59
2023-05-21T21:38:19.615Z,16.60
2023-05-21T21:40:46.051Z,16.62
2023-05-21T21:43:12.496Z,16.62
2023-05-21T21:45:38.941Z,16.51
2023-05-21T21:48:05.757Z,16.56
2023-05-21T21:50:32.197Z,16.56
2023-05-21T21:52:59.801Z,16.59
2023-05-21T21:55:26.393Z,16.56
2023-05-21T21:57:52.806Z,16.54
2023-05-21T22:00:19.506Z,16.51
2023-05-21T22:02:46.661Z,16.43
2023-05-21T22:05:14.615Z,16.43
2023-05-21T22:07:42.537Z,16.47
2023-05-21T22:10:09.402Z,16.48
2023-05-21T22:12:35.957Z,16.48
2023-05-21T22:15:05.220Z,16.43
2023-05-21T22:17:32.681Z,16.37
2023-05-21T22:19:59.038Z,16.35
2023-05-21T22:22:25.962Z,16.37
2023-05-21T22:24:53.155Z,16.35
2023-05-21T22:27:20.588Z,16.22
2023-05-21T22:29:47.027Z,16.24
2023-05-21T22:32:13.827Z,16.23
2023-05-21T22:34:41.752Z,16.12
2023-05-21T22:37:08.124Z,15.98
2023-05-21T22:39:34.518Z,15.95
2023-05-21T22:42:01.448Z,15.99
2023-05-21T22:44:27.875Z,15.97
2023-05-21T22:46:56.283Z,15.94
2023-05-21T22:49:22.821Z,15.95
2023-05-21T22:51:49.468Z,15.98
2023-05-21T22:54:15.973Z,15.99
2023-05-21T22:56:42.390Z,16.04
2023-05-21T22:59:08.779Z,15.98
2023-05-21T23:01:36.898Z,15.96
2023-05-21T23:04:03.774Z,15.98
2023-05-21T23:06:30.597Z,15.99
2023-05-21T23:08:57.061Z,16.07
2023-05-21T23:11:23.551Z,16.05
2023-05-21T23:13:49.954Z,16.11
2023-05-21T23:16:16.877Z,16.21
2023-05-21T23:18:43.318Z,16.29
2023-05-21T23:21:09.943Z,16.35
2023-05-21T23:23:36.421Z,16.28
2023-05-21T23:26:02.856Z,16.31
2023-05-21T23:28:29.316Z,16.38
2023-05-21T23:30:55.908Z,16.49
2023-05-21T23:33:22.406Z,16.45
2023-05-21T23:35:48.780Z,16.43
2023-05-21T23:38:15.300Z,16.33
2023-05-21T23:40:42.171Z,16.37
2023-05-21T23:43:08.645Z,16.36
2023-05-21T23:45:35.053Z,16.36
2023-05-21T23:48:01.542Z,16.40
2023-05-21T23:50:27.959Z,16.29
2023-05-21T23:52:54.469Z,16.32
2023-05-21T23:55:20.919Z,16.34
2023-05-21T23:57:47.298Z,16.29
